Chamar Uno — EA2638 — position and weather

sailwx.info

Track history (hours):
 
Tides and Currents Weather Stations Pressure Air Temp Water Temp Dewpoint Dewpoint Depression Visibility Wind Speed Wind Dir Waves Ship Positions

Chamar Uno

Last reported at 2017-Nov-18 20:32 UTC. Time now 2017-Nov-20 17:35 UTC.
Position N 28°09' W 015°26'.

Length 16 m; draft 3.7 m.

Type: Other ship. MMSI: 224053260.

Date/timePositionNaut miles runAvg speedWind from/ knotsBaromVisibWave heightAir tempDewpointWater temp
2017-Nov-18 20:32N 28°09' W 015°26'0 0.6
2017-Nov-18 20:30N 28°09' W 015°25'2 3.5
2017-Nov-18 20:00N 28°08' W 015°24'1 1.7
2017-Nov-18 19:30N 28°09' W 015°23'0 0.0
2017-Nov-18 18:59N 28°09' W 015°23'0 0.0
2017-Nov-18 18:30N 28°09' W 015°23'0 0.0
2017-Nov-18 17:58N 28°09' W 015°23'0 0.0
2017-Nov-18 17:08N 28°09' W 015°23'0 0.2
2017-Nov-18 17:00N 28°09' W 015°23'0 0.0
2017-Nov-18 16:30N 28°09' W 015°23'0 0.0
2017-Nov-18 16:00N 28°09' W 015°23'0 0.1
2017-Nov-18 15:30N 28°09' W 015°23'0 0.1
2017-Nov-18 15:00N 28°09' W 015°23'0 0.0
2017-Nov-18 14:30N 28°09' W 015°23'0 0.0
2017-Nov-18 14:00N 28°09' W 015°23'0 0.0
2017-Nov-18 13:30N 28°09' W 015°23'0 0.0
2017-Nov-18 13:00N 28°09' W 015°23'0 0.1
2017-Nov-18 12:30N 28°09' W 015°23'0 0.1
2017-Nov-18 12:00N 28°09' W 015°23'0 0.3
2017-Nov-18 11:30N 28°09' W 015°23'1 1.1
2017-Nov-18 11:00N 28°09' W 015°24'1 2.5
2017-Nov-18 10:30N 28°07' W 015°24'2 0.1
2017-Nov-17 18:54N 28°09' W 015°26'2 4.0
2017-Nov-17 18:30N 28°08' W 015°24'1 1.3
2017-Nov-17 18:00N 28°09' W 015°24'2 3.6
2017-Nov-17 17:30N 28°07' W 015°24'2 3.4
2017-Nov-17 17:00N 28°09' W 015°25'0 0.0
2017-Nov-17 16:30N 28°09' W 015°25'0 0.0
2017-Nov-17 14:48N 28°09' W 015°26'0 0.1
2017-Nov-17 14:30N 28°09' W 015°25'0 0.0
2017-Nov-17 14:00N 28°09' W 015°26'0 0.0
2017-Nov-17 13:30N 28°09' W 015°26'0 0.0
2017-Nov-17 13:00N 28°09' W 015°26'0 0.0
2017-Nov-17 12:31N 28°09' W 015°26'0 0.0
2017-Nov-17 12:01N 28°09' W 015°26'0 0.0
2017-Nov-17 11:30N 28°09' W 015°26'0 0.0
2017-Nov-17 11:01N 28°09' W 015°26'0 0.0
2017-Nov-17 10:31N 28°09' W 015°26'0 0.0
2017-Nov-17 10:00N 28°09' W 015°25'0 0.0
2017-Nov-17 09:30N 28°09' W 015°26'1 1.9
2017-Nov-17 09:00N 28°08' W 015°25'1 1.7
2017-Nov-17 08:30N 28°09' W 015°24'1 1.7
2017-Nov-17 08:00N 28°08' W 015°25'1 0.1
2017-Nov-16 16:56N 28°09' W 015°26'1 2.6
2017-Nov-16 16:30N 28°08' W 015°25'4 7.6
2017-Nov-16 16:00N 28°04' W 015°24'2 3.0
2017-Nov-16 15:30N 28°02' W 015°23'0 0.8
2017-Nov-16 15:00N 28°03' W 015°23'4 7.9
2017-Nov-16 14:30N 28°07' W 015°25'2 0.4
2017-Nov-16 09:21N 28°09' W 015°25'2 6.6
2017-Nov-16 09:00N 28°07' W 015°24'4 7.7
2017-Nov-16 08:30N 28°03' W 015°23'1 2.1
2017-Nov-16 08:00N 28°04' W 015°23'4 7.4
2017-Nov-16 07:30N 28°07' W 015°25'1 0.1
2017-Nov-15 18:11N 28°09' W 015°25'0 0.0
2017-Nov-15 18:00N 28°09' W 015°25'2 3.1
2017-Nov-15 17:30N 28°07' W 015°25'4 7.8
2017-Nov-15 17:00N 28°03' W 015°24'1 2.1
2017-Nov-15 16:30N 28°02' W 015°23'0 0.1
2017-Nov-15 16:00N 28°02' W 015°23'4 8.0
2017-Nov-15 15:30N 28°06' W 015°24'2 0.6
2017-Nov-15 11:05N 28°09' W 015°25'1 6.5
2017-Nov-15 11:00N 28°08' W 015°25'4 7.7
2017-Nov-15 10:30N 28°04' W 015°24'2 4.2
2017-Nov-15 10:00N 28°02' W 015°23'0 0.1
2017-Nov-15 09:30N 28°02' W 015°23'0 0.1
2017-Nov-15 09:00N 28°02' W 015°23'4 7.8
2017-Nov-15 08:30N 28°06' W 015°24'3 5.1
2017-Nov-15 08:00N 28°09' W 015°25'0 0.0
2017-Nov-15 07:30N 28°09' W 015°25'0 0.0
2017-Nov-15 07:00N 28°09' W 015°25'  
2017-Nov-12 21:26N 28°08' W 015°25'3 6.7
2017-Nov-12 21:01N 28°06' W 015°24'1 1.5
2017-Nov-12 20:30N 28°06' W 015°24'2 0.5
2017-Nov-12 15:09N 28°09' W 015°25'0 0.2
2017-Nov-12 15:00N 28°09' W 015°25'0 0.0
2017-Nov-12 14:30N 28°09' W 015°25'3 5.7
2017-Nov-12 14:00N 28°06' W 015°24'0 0.1
2017-Nov-12 13:30N 28°06' W 015°24'1 2.2
2017-Nov-12 13:00N 28°05' W 015°23'0 0.0
2017-Nov-12 12:30N 28°05' W 015°23'0 0.0
2017-Nov-12 12:00N 28°05' W 015°23'1 2.6
2017-Nov-12 11:30N 28°06' W 015°24'3 0.1
2017-Nov-10 11:03N 28°09' W 015°25'0 2.2
2017-Nov-10 11:00N 28°08' W 015°25'2 3.2
2017-Nov-10 10:30N 28°09' W 015°24'0 0.5
2017-Nov-10 10:00N 28°09' W 015°24'0 0.4
2017-Nov-10 09:30N 28°09' W 015°24'1 2.7
2017-Nov-10 09:00N 28°08' W 015°24'1 3.0
2017-Nov-10 08:30N 28°09' W 015°25'0 0.0
2017-Nov-10 08:00N 28°09' W 015°25'0 0.1
2017-Nov-10 07:30N 28°09' W 015°26'  
Track history (hours):
 
Tides and Currents Weather Stations Pressure Air Temp Water Temp Dewpoint Dewpoint Depression Visibility Wind Speed Wind Dir Waves Ship Positions

Chamar Uno

Last reported at 2017-Nov-18 20:32 UTC. Time now 2017-Nov-20 17:35 UTC.
Position N 28°09' W 015°26'.

Length 16 m; draft 3.7 m.

Type: Other ship. MMSI: 224053260.

Date/timePositionNaut miles runAvg speedWind from/ knotsBaromVisibWave heightAir tempDewpointWater temp
2017-Nov-18 20:32N 28°09' W 015°26'0 0.6
2017-Nov-18 20:30N 28°09' W 015°25'2 3.5
2017-Nov-18 20:00N 28°08' W 015°24'1 1.7
2017-Nov-18 19:30N 28°09' W 015°23'0 0.0
2017-Nov-18 18:59N 28°09' W 015°23'0 0.0
2017-Nov-18 18:30N 28°09' W 015°23'0 0.0
2017-Nov-18 17:58N 28°09' W 015°23'0 0.0
2017-Nov-18 17:08N 28°09' W 015°23'0 0.2
2017-Nov-18 17:00N 28°09' W 015°23'0 0.0
2017-Nov-18 16:30N 28°09' W 015°23'0 0.0
2017-Nov-18 16:00N 28°09' W 015°23'0 0.1
2017-Nov-18 15:30N 28°09' W 015°23'0 0.1
2017-Nov-18 15:00N 28°09' W 015°23'0 0.0
2017-Nov-18 14:30N 28°09' W 015°23'0 0.0
2017-Nov-18 14:00N 28°09' W 015°23'0 0.0
2017-Nov-18 13:30N 28°09' W 015°23'0 0.0
2017-Nov-18 13:00N 28°09' W 015°23'0 0.1
2017-Nov-18 12:30N 28°09' W 015°23'0 0.1
2017-Nov-18 12:00N 28°09' W 015°23'0 0.3
2017-Nov-18 11:30N 28°09' W 015°23'1 1.1
2017-Nov-18 11:00N 28°09' W 015°24'1 2.5
2017-Nov-18 10:30N 28°07' W 015°24'2 0.1
2017-Nov-17 18:54N 28°09' W 015°26'2 4.0
2017-Nov-17 18:30N 28°08' W 015°24'1 1.3
2017-Nov-17 18:00N 28°09' W 015°24'2 3.6
2017-Nov-17 17:30N 28°07' W 015°24'2 3.4
2017-Nov-17 17:00N 28°09' W 015°25'0 0.0
2017-Nov-17 16:30N 28°09' W 015°25'0 0.0
2017-Nov-17 14:48N 28°09' W 015°26'0 0.1
2017-Nov-17 14:30N 28°09' W 015°25'0 0.0
2017-Nov-17 14:00N 28°09' W 015°26'0 0.0
2017-Nov-17 13:30N 28°09' W 015°26'0 0.0
2017-Nov-17 13:00N 28°09' W 015°26'0 0.0
2017-Nov-17 12:31N 28°09' W 015°26'0 0.0
2017-Nov-17 12:01N 28°09' W 015°26'0 0.0
2017-Nov-17 11:30N 28°09' W 015°26'0 0.0
2017-Nov-17 11:01N 28°09' W 015°26'0 0.0
2017-Nov-17 10:31N 28°09' W 015°26'0 0.0
2017-Nov-17 10:00N 28°09' W 015°25'0 0.0
2017-Nov-17 09:30N 28°09' W 015°26'1 1.9
2017-Nov-17 09:00N 28°08' W 015°25'1 1.7
2017-Nov-17 08:30N 28°09' W 015°24'1 1.7
2017-Nov-17 08:00N 28°08' W 015°25'1 0.1
2017-Nov-16 16:56N 28°09' W 015°26'1 2.6
2017-Nov-16 16:30N 28°08' W 015°25'4 7.6
2017-Nov-16 16:00N 28°04' W 015°24'2 3.0
2017-Nov-16 15:30N 28°02' W 015°23'0 0.8
2017-Nov-16 15:00N 28°03' W 015°23'4 7.9
2017-Nov-16 14:30N 28°07' W 015°25'2 0.4
2017-Nov-16 09:21N 28°09' W 015°25'2 6.6
2017-Nov-16 09:00N 28°07' W 015°24'4 7.7
2017-Nov-16 08:30N 28°03' W 015°23'1 2.1
2017-Nov-16 08:00N 28°04' W 015°23'4 7.4
2017-Nov-16 07:30N 28°07' W 015°25'1 0.1
2017-Nov-15 18:11N 28°09' W 015°25'0 0.0
2017-Nov-15 18:00N 28°09' W 015°25'2 3.1
2017-Nov-15 17:30N 28°07' W 015°25'4 7.8
2017-Nov-15 17:00N 28°03' W 015°24'1 2.1
2017-Nov-15 16:30N 28°02' W 015°23'0 0.1
2017-Nov-15 16:00N 28°02' W 015°23'4 8.0
2017-Nov-15 15:30N 28°06' W 015°24'2 0.6
2017-Nov-15 11:05N 28°09' W 015°25'1 6.5
2017-Nov-15 11:00N 28°08' W 015°25'4 7.7
2017-Nov-15 10:30N 28°04' W 015°24'2 4.2
2017-Nov-15 10:00N 28°02' W 015°23'0 0.1
2017-Nov-15 09:30N 28°02' W 015°23'0 0.1
2017-Nov-15 09:00N 28°02' W 015°23'4 7.8
2017-Nov-15 08:30N 28°06' W 015°24'3 5.1
2017-Nov-15 08:00N 28°09' W 015°25'0 0.0
2017-Nov-15 07:30N 28°09' W 015°25'0 0.0
2017-Nov-15 07:00N 28°09' W 015°25'  
2017-Nov-12 21:26N 28°08' W 015°25'3 6.7
2017-Nov-12 21:01N 28°06' W 015°24'1 1.5
2017-Nov-12 20:30N 28°06' W 015°24'2 0.5
2017-Nov-12 15:09N 28°09' W 015°25'0 0.2
2017-Nov-12 15:00N 28°09' W 015°25'0 0.0
2017-Nov-12 14:30N 28°09' W 015°25'3 5.7
2017-Nov-12 14:00N 28°06' W 015°24'0 0.1
2017-Nov-12 13:30N 28°06' W 015°24'1 2.2
2017-Nov-12 13:00N 28°05' W 015°23'0 0.0
2017-Nov-12 12:30N 28°05' W 015°23'0 0.0
2017-Nov-12 12:00N 28°05' W 015°23'1 2.6
2017-Nov-12 11:30N 28°06' W 015°24'3 0.1
2017-Nov-10 11:03N 28°09' W 015°25'0 2.2
2017-Nov-10 11:00N 28°08' W 015°25'2 3.2
2017-Nov-10 10:30N 28°09' W 015°24'0 0.5
2017-Nov-10 10:00N 28°09' W 015°24'0 0.4
2017-Nov-10 09:30N 28°09' W 015°24'1 2.7
2017-Nov-10 09:00N 28°08' W 015°24'1 3.0
2017-Nov-10 08:30N 28°09' W 015°25'0 0.0
2017-Nov-10 08:00N 28°09' W 015°25'0 0.1
2017-Nov-10 07:30N 28°09' W 015°26'  

Dump ship's entire track history